createdAt,value
2022-11-01T00:00:52.511Z,14.71
2022-11-01T00:03:24.534Z,14.63
2022-11-01T00:05:54.962Z,14.51
2022-11-01T00:08:25.027Z,14.48
2022-11-01T00:11:02.628Z,14.62
2022-11-01T00:13:32.667Z,14.40
2022-11-01T00:16:03.227Z,14.46
2022-11-01T00:18:33.307Z,14.39
2022-11-01T00:21:03.763Z,14.35
2022-11-01T00:23:34.891Z,14.24
2022-11-01T00:26:06.170Z,14.23
2022-11-01T00:28:36.718Z,14.27
2022-11-01T00:31:10.256Z,14.18
2022-11-01T00:33:42.972Z,13.91
2022-11-01T00:36:13.397Z,14.11
2022-11-01T00:38:43.173Z,14.25
2022-11-01T00:41:14.127Z,14.17
2022-11-01T00:43:44.217Z,14.30
2022-11-01T00:46:14.651Z,14.35
2022-11-01T00:48:47.612Z,14.04
2022-11-01T00:51:17.979Z,14.18
2022-11-01T00:53:48.029Z,14.35
2022-11-01T00:56:19.574Z,14.37
2022-11-01T00:58:49.668Z,14.21
2022-11-01T01:01:20.279Z,14.17
2022-11-01T01:03:50.398Z,14.30
2022-11-01T01:06:20.826Z,14.14
2022-11-01T01:08:51.091Z,14.30
2022-11-01T01:11:21.027Z,14.39
2022-11-01T01:13:50.691Z,14.37
2022-11-01T01:16:20.808Z,14.45
2022-11-01T01:18:51.204Z,14.35
2022-11-01T01:21:21.373Z,14.24
2022-11-01T01:23:52.617Z,14.47
2022-11-01T01:26:23.423Z,14.48
2022-11-01T01:28:56.077Z,14.51
2022-11-01T01:31:26.606Z,14.55
2022-11-01T01:33:56.615Z,14.71
2022-11-01T01:36:27.370Z,14.66
2022-11-01T01:38:57.694Z,14.70
2022-11-01T01:41:46.308Z,14.73
2022-11-01T01:44:52.941Z,14.70
2022-11-01T01:47:31.774Z,14.69
2022-11-01T01:50:10.671Z,14.42
2022-11-01T01:53:03.925Z,14.60
2022-11-01T01:55:48.325Z,14.62
2022-11-01T01:58:19.348Z,14.35
2022-11-01T02:00:49.404Z,14.61
2022-11-01T02:03:20.262Z,14.51
2022-11-01T02:06:07.821Z,14.67
2022-11-01T02:08:41.538Z,14.52
2022-11-01T02:11:13.679Z,14.54
2022-11-01T02:13:43.939Z,14.32
2022-11-01T02:16:14.213Z,14.43
2022-11-01T02:19:24.097Z,14.36
2022-11-01T02:22:19.078Z,14.26
2022-11-01T02:25:02.866Z,14.24
2022-11-01T02:27:57.278Z,14.27
2022-11-01T02:30:40.390Z,14.00
2022-11-01T02:33:16.657Z,14.08
2022-11-01T02:36:07.020Z,13.99
2022-11-01T02:39:09.491Z,14.15
2022-11-01T02:42:06.595Z,14.14
2022-11-01T02:44:41.600Z,14.01
2022-11-01T02:47:13.378Z,14.03
2022-11-01T02:49:47.814Z,14.04
2022-11-01T02:52:25.390Z,14.15
2022-11-01T02:55:01.395Z,14.32
2022-11-01T02:57:42.830Z,14.20
2022-11-01T03:00:34.977Z,14.17
2022-11-01T03:03:07.769Z,14.17
2022-11-01T03:05:40.833Z,14.34
2022-11-01T03:08:21.950Z,14.39
2022-11-01T03:11:03.059Z,14.06
2022-11-01T03:13:55.110Z,14.14
2022-11-01T03:16:39.717Z,14.00
2022-11-01T03:19:25.633Z,13.89
2022-11-01T03:22:05.374Z,13.85
2022-11-01T03:24:58.216Z,14.19
2022-11-01T03:27:33.785Z,14.39
2022-11-01T03:30:12.699Z,14.31
2022-11-01T03:32:49.154Z,14.20
2022-11-01T03:35:24.105Z,14.24
2022-11-01T03:37:58.558Z,14.43
2022-11-01T03:40:31.294Z,14.46
2022-11-01T03:43:08.310Z,14.41
2022-11-01T03:45:41.573Z,14.15
2022-11-01T03:48:12.194Z,13.88
2022-11-01T03:50:49.864Z,13.98
2022-11-01T03:53:21.306Z,14.03
2022-11-01T03:55:51.735Z,13.95
2022-11-01T03:58:22.382Z,13.94
2022-11-01T04:00:52.446Z,13.77
2022-11-01T04:03:22.254Z,13.56
2022-11-01T04:05:52.799Z,13.33
2022-11-01T04:08:22.790Z,13.37
2022-11-01T04:10:53.400Z,13.37
2022-11-01T04:13:23.724Z,13.54
2022-11-01T04:16:11.855Z,13.70
2022-11-01T04:19:00.080Z,13.77
2022-11-01T04:21:35.905Z,13.79
2022-11-01T04:24:06.116Z,13.76
2022-11-01T04:26:37.249Z,13.41
2022-11-01T04:29:07.216Z,13.56
2022-11-01T04:31:38.361Z,13.37
2022-11-01T04:34:08.352Z,13.32
2022-11-01T04:36:41.165Z,13.34
2022-11-01T04:39:14.166Z,13.23
2022-11-01T04:41:44.517Z,13.33
2022-11-01T04:44:14.448Z,13.46
2022-11-01T04:46:44.175Z,13.58
2022-11-01T04:49:14.165Z,13.41
2022-11-01T04:51:44.792Z,13.35
2022-11-01T04:54:14.873Z,13.44
2022-11-01T04:56:45.597Z,13.33
2022-11-01T04:59:15.740Z,13.48
2022-11-01T05:01:46.348Z,13.37
2022-11-01T05:04:16.239Z,13.40
2022-11-01T05:06:46.310Z,13.23
2022-11-01T05:09:16.209Z,13.05
2022-11-01T05:11:46.321Z,13.02
2022-11-01T05:14:16.918Z,13.08
2022-11-01T05:16:47.279Z,13.07
2022-11-01T05:19:18.189Z,13.13
2022-11-01T05:21:48.233Z,13.35
2022-11-01T05:24:19.350Z,13.31
2022-11-01T05:26:51.953Z,13.21
2022-11-01T05:29:32.950Z,13.36
2022-11-01T05:32:03.779Z,13.16
2022-11-01T05:34:33.714Z,13.11
2022-11-01T05:37:03.711Z,13.38
2022-11-01T05:39:34.166Z,13.27
2022-11-01T05:42:05.713Z,13.04
2022-11-01T05:44:35.713Z,12.99
2022-11-01T05:47:07.359Z,13.15
2022-11-01T05:49:36.876Z,13.38
2022-11-01T05:52:06.689Z,13.29
2022-11-01T05:54:37.171Z,13.58
2022-11-01T05:57:07.911Z,13.38
2022-11-01T05:59:38.375Z,13.40
2022-11-01T06:02:08.166Z,13.38
2022-11-01T06:04:38.698Z,13.38
2022-11-01T06:07:08.666Z,13.35
2022-11-01T06:09:39.259Z,13.13
2022-11-01T06:12:09.447Z,13.05
2022-11-01T06:14:39.620Z,12.88
2022-11-01T06:17:09.854Z,12.69
2022-11-01T06:19:40.005Z,12.52
2022-11-01T06:22:09.731Z,12.75
2022-11-01T06:24:39.987Z,12.59
2022-11-01T06:27:13.529Z,12.37
2022-11-01T06:29:43.678Z,12.36
2022-11-01T06:32:14.136Z,12.25
2022-11-01T06:34:45.073Z,12.57
2022-11-01T06:37:15.707Z,12.26
2022-11-01T06:39:46.848Z,12.37
2022-11-01T06:42:17.297Z,12.34
2022-11-01T06:44:47.358Z,12.05
2022-11-01T06:47:17.127Z,12.49
2022-11-01T06:49:47.606Z,12.31
2022-11-01T06:52:17.663Z,12.52
2022-11-01T06:54:49.046Z,12.21
2022-11-01T06:57:21.045Z,12.52
2022-11-01T06:59:51.958Z,12.30
2022-11-01T07:02:27.061Z,12.38
2022-11-01T07:05:00.092Z,12.52
2022-11-01T07:07:30.373Z,12.57
2022-11-01T07:10:00.872Z,12.37
2022-11-01T07:12:30.893Z,12.29
2022-11-01T07:15:01.413Z,12.52
2022-11-01T07:17:31.170Z,12.54
2022-11-01T07:20:01.698Z,12.58
2022-11-01T07:22:31.718Z,12.61
2022-11-01T07:25:02.255Z,12.44
2022-11-01T07:27:32.848Z,12.32
2022-11-01T07:30:02.842Z,12.32
2022-11-01T07:32:36.300Z,12.42
2022-11-01T07:35:09.317Z,12.61
2022-11-01T07:37:42.346Z,12.20
2022-11-01T07:40:13.121Z,12.18
2022-11-01T07:42:47.044Z,12.33
2022-11-01T07:45:17.080Z,12.12
2022-11-01T07:47:47.505Z,12.14
2022-11-01T07:50:17.657Z,12.13
2022-11-01T07:52:48.260Z,12.05
2022-11-01T07:55:18.415Z,12.37
2022-11-01T07:57:51.378Z,12.22
2022-11-01T08:00:21.614Z,12.14
2022-11-01T08:02:52.269Z,12.20
2022-11-01T08:05:22.276Z,11.99
2022-11-01T08:07:52.628Z,11.89
2022-11-01T08:10:23.194Z,11.87
2022-11-01T08:12:53.678Z,12.04
2022-11-01T08:15:23.698Z,11.86
2022-11-01T08:17:56.048Z,12.09
2022-11-01T08:20:27.391Z,12.07
2022-11-01T08:22:57.869Z,12.10
2022-11-01T08:25:28.234Z,11.75
2022-11-01T08:28:06.996Z,12.07
2022-11-01T08:30:39.014Z,11.91
2022-11-01T08:33:09.699Z,11.88
2022-11-01T08:35:40.043Z,11.97
2022-11-01T08:38:11.046Z,11.79
2022-11-01T08:40:41.578Z,11.87
2022-11-01T08:43:12.383Z,11.82
2022-11-01T08:45:46.117Z,11.71
2022-11-01T08:48:18.572Z,11.88
2022-11-01T08:50:48.726Z,11.77
2022-11-01T08:53:20.661Z,11.91
2022-11-01T08:55:57.147Z,12.01
2022-11-01T08:58:27.522Z,12.01
2022-11-01T09:00:57.528Z,11.84
2022-11-01T09:03:27.972Z,11.93
2022-11-01T09:05:59.102Z,12.04
2022-11-01T09:08:29.437Z,12.02
2022-11-01T09:11:02.203Z,11.77
2022-11-01T09:13:32.553Z,11.91
2022-11-01T09:16:07.786Z,11.82
2022-11-01T09:18:38.771Z,11.62
2022-11-01T09:21:11.673Z,11.76
2022-11-01T09:23:42.118Z,11.47
2022-11-01T09:26:12.923Z,11.63
2022-11-01T09:28:43.353Z,11.61
2022-11-01T09:31:19.824Z,11.52
2022-11-01T09:33:50.314Z,11.64
2022-11-01T09:36:20.015Z,11.72
2022-11-01T09:38:50.111Z,11.80
2022-11-01T09:41:30.070Z,12.13
2022-11-01T09:44:06.281Z,12.08
2022-11-01T09:46:48.941Z,12.26
2022-11-01T09:49:26.930Z,12.36
2022-11-01T09:51:58.089Z,12.44
2022-11-01T09:54:29.261Z,12.80
2022-11-01T09:57:08.674Z,12.77
2022-11-01T09:59:45.545Z,12.80
2022-11-01T10:02:40.226Z,12.95
2022-11-01T10:05:14.564Z,12.98
2022-11-01T10:08:14.188Z,12.82
2022-11-01T10:11:05.339Z,12.97
2022-11-01T10:13:53.873Z,12.89
2022-11-01T10:16:49.988Z,12.86
2022-11-01T10:19:25.033Z,13.26
2022-11-01T10:22:02.244Z,13.44
2022-11-01T10:24:53.973Z,13.79
2022-11-01T10:27:37.150Z,13.40
2022-11-01T10:30:19.426Z,13.42
2022-11-01T10:32:52.010Z,13.68
2022-11-01T10:35:36.903Z,13.70
2022-11-01T10:38:25.134Z,14.07
2022-11-01T10:41:12.975Z,14.29
2022-11-01T10:43:48.073Z,14.45
2022-11-01T10:46:23.149Z,14.23
2022-11-01T10:49:01.517Z,14.66
2022-11-01T10:51:34.942Z,14.74
2022-11-01T10:54:09.922Z,14.70
2022-11-01T10:56:47.163Z,14.78
2022-11-01T10:59:42.538Z,15.09
2022-11-01T11:02:43.125Z,14.91
2022-11-01T11:05:17.733Z,15.03
2022-11-01T11:07:51.277Z,15.50
2022-11-01T11:10:25.883Z,16.09
2022-11-01T11:13:04.700Z,16.13
2022-11-01T11:15:44.829Z,16.04
2022-11-01T11:18:27.048Z,16.22
2022-11-01T11:21:01.968Z,16.08
2022-11-01T11:23:37.386Z,16.45
2022-11-01T11:26:21.908Z,16.76
2022-11-01T11:28:57.693Z,17.08
2022-11-01T11:31:32.552Z,17.63
2022-11-01T11:34:23.921Z,18.87
2022-11-01T11:36:56.201Z,18.64
2022-11-01T11:39:37.801Z,18.94
2022-11-01T11:42:17.153Z,17.96
2022-11-01T11:44:55.648Z,18.39
2022-11-01T11:47:29.498Z,18.58
2022-11-01T11:50:01.768Z,18.80
2022-11-01T11:52:41.002Z,18.90
2022-11-01T11:55:54.745Z,18.57
2022-11-01T11:58:24.684Z,19.11
2022-11-01T12:00:56.001Z,19.99
2022-11-01T12:03:25.950Z,19.53
2022-11-01T12:06:05.578Z,19.19
2022-11-01T12:08:51.904Z,19.15
2022-11-01T12:11:24.938Z,18.91
2022-11-01T12:14:08.567Z,17.72
2022-11-01T12:16:42.747Z,17.48
2022-11-01T12:19:33.323Z,18.23
2022-11-01T12:22:04.372Z,18.84
2022-11-01T12:24:42.524Z,20.35
2022-11-01T12:27:21.716Z,19.68
2022-11-01T12:29:57.659Z,19.16
2022-11-01T12:32:40.598Z,19.09
2022-11-01T12:35:36.471Z,19.05
2022-11-01T12:39:12.035Z,18.41
2022-11-01T12:41:46.379Z,18.56
2022-11-01T12:44:37.483Z,18.23
2022-11-01T12:47:26.104Z,18.46
2022-11-01T12:50:17.326Z,18.40
2022-11-01T12:52:59.014Z,18.60
2022-11-01T12:55:39.378Z,18.78
2022-11-01T12:58:33.503Z,19.01
2022-11-01T13:01:39.157Z,19.29
2022-11-01T13:04:31.818Z,19.12
2022-11-01T13:07:11.034Z,18.82
2022-11-01T13:10:03.802Z,19.23
2022-11-01T13:12:40.802Z,19.53
2022-11-01T13:15:44.095Z,19.48
2022-11-01T13:18:46.929Z,20.13
2022-11-01T13:21:39.847Z,20.47
2022-11-01T13:24:26.951Z,21.54
2022-11-01T13:27:11.576Z,21.87
2022-11-01T13:29:56.089Z,20.95
2022-11-01T13:32:51.973Z,21.80
2022-11-01T13:35:30.868Z,22.40
2022-11-01T13:38:16.013Z,22.41
2022-11-01T13:41:05.921Z,23.43
2022-11-01T13:43:42.262Z,22.67
2022-11-01T13:46:36.954Z,22.54
2022-11-01T13:49:10.389Z,21.97
2022-11-01T13:52:06.947Z,22.13
2022-11-01T13:54:44.648Z,22.36
2022-11-01T13:57:18.492Z,22.63
2022-11-01T14:00:00.946Z,23.32
2022-11-01T14:02:54.100Z,23.41
2022-11-01T14:05:38.097Z,23.63
2022-11-01T14:08:14.467Z,24.13
2022-11-01T14:10:49.539Z,24.96
2022-11-01T14:13:31.871Z,24.68
2022-11-01T14:16:04.744Z,24.25
2022-11-01T14:19:19.113Z,24.88
2022-11-01T14:21:54.525Z,24.15
2022-11-01T14:24:34.799Z,24.62
2022-11-01T14:27:27.942Z,24.71
2022-11-01T14:29:58.376Z,25.37
2022-11-01T14:32:31.277Z,24.08
2022-11-01T14:35:26.890Z,23.24
2022-11-01T14:38:05.518Z,23.58
2022-11-01T14:40:39.365Z,24.45
2022-11-01T14:43:22.064Z,24.46
2022-11-01T14:46:36.984Z,23.81
2022-11-01T14:49:18.713Z,23.37
2022-11-01T14:52:19.280Z,24.51
2022-11-01T14:54:59.338Z,24.67
2022-11-01T14:57:31.908Z,24.16
2022-11-01T15:00:26.674Z,23.15
2022-11-01T15:05:30.450Z,23.30
2022-11-01T15:08:01.197Z,23.60
2022-11-01T15:10:43.374Z,24.20
2022-11-01T15:13:17.578Z,23.19
2022-11-01T15:15:58.906Z,22.84
2022-11-01T15:18:32.257Z,21.72
2022-11-01T15:21:03.369Z,21.44
2022-11-01T15:23:39.207Z,22.89
2022-11-01T15:26:14.185Z,22.92
2022-11-01T15:29:08.170Z,22.24
2022-11-01T15:31:50.593Z,22.35
2022-11-01T15:34:29.294Z,21.77
2022-11-01T15:37:11.489Z,21.91
2022-11-01T15:39:44.292Z,21.56
2022-11-01T15:42:21.445Z,22.05
2022-11-01T15:44:52.322Z,22.25
2022-11-01T15:47:27.202Z,22.44
2022-11-01T15:50:02.038Z,23.46
2022-11-01T15:52:35.674Z,24.72
2022-11-01T15:55:17.825Z,24.08
2022-11-01T15:57:50.213Z,23.30
2022-11-01T16:00:23.544Z,22.89
2022-11-01T16:03:02.818Z,23.05
2022-11-01T16:05:43.192Z,22.93
2022-11-01T16:08:50.846Z,21.76
2022-11-01T16:11:23.881Z,21.36
2022-11-01T16:14:23.198Z,20.21
2022-11-01T16:17:07.544Z,19.81
2022-11-01T16:19:38.203Z,19.96
2022-11-01T16:22:27.879Z,21.78
2022-11-01T16:25:07.095Z,22.03
2022-11-01T16:27:37.168Z,21.23
2022-11-01T16:30:29.665Z,21.48
2022-11-01T16:33:28.312Z,21.35
2022-11-01T16:36:00.673Z,21.71
2022-11-01T16:38:39.303Z,21.64
2022-11-01T16:41:19.960Z,22.82
2022-11-01T16:43:58.829Z,24.23
2022-11-01T16:46:33.674Z,24.17
2022-11-01T16:49:21.824Z,23.43
2022-11-01T16:51:53.591Z,24.04
2022-11-01T16:54:25.434Z,24.10
2022-11-01T16:56:59.467Z,21.33
2022-11-01T16:59:36.856Z,22.71
2022-11-01T17:02:20.068Z,22.12
2022-11-01T17:04:57.252Z,20.97
2022-11-01T17:07:30.979Z,20.95
2022-11-01T17:10:01.713Z,21.44
2022-11-01T17:12:31.752Z,22.20
2022-11-01T17:15:03.850Z,22.21
2022-11-01T17:17:34.058Z,22.03
2022-11-01T17:20:05.255Z,22.24
2022-11-01T17:22:37.874Z,22.71
2022-11-01T17:25:08.755Z,23.39
2022-11-01T17:27:38.842Z,24.94
2022-11-01T17:30:10.747Z,25.39
2022-11-01T17:32:40.784Z,26.00
2022-11-01T17:35:12.857Z,26.81
2022-11-01T17:37:43.483Z,26.81
2022-11-01T17:40:22.540Z,26.28
2022-11-01T17:42:53.299Z,26.41
2022-11-01T17:45:25.646Z,27.25
2022-11-01T17:47:56.742Z,28.29
2022-11-01T17:50:27.481Z,28.91
2022-11-01T17:52:57.981Z,28.13
2022-11-01T17:55:29.718Z,26.78
2022-11-01T17:58:00.330Z,26.32
2022-11-01T18:00:33.135Z,25.55
2022-11-01T18:03:05.713Z,25.07
2022-11-01T18:05:36.867Z,24.47
2022-11-01T18:08:20.139Z,23.83
2022-11-01T18:11:12.781Z,23.66
2022-11-01T18:13:55.131Z,24.21
2022-11-01T18:16:42.898Z,23.52
2022-11-01T18:19:37.574Z,23.75
2022-11-01T18:22:36.065Z,23.71
2022-11-01T18:25:15.167Z,23.20
2022-11-01T18:27:46.703Z,22.99
2022-11-01T18:30:19.491Z,23.83
2022-11-01T18:33:07.410Z,24.72
2022-11-01T18:35:46.943Z,26.18
2022-11-01T18:38:30.340Z,26.27
2022-11-01T18:41:08.108Z,25.41
2022-11-01T18:43:44.640Z,24.20
2022-11-01T18:46:27.373Z,22.79
2022-11-01T18:49:04.823Z,21.77
2022-11-01T18:51:38.096Z,20.87
2022-11-01T18:54:12.534Z,20.93
2022-11-01T18:56:49.380Z,20.75
2022-11-01T18:59:36.470Z,21.65
2022-11-01T19:02:17.049Z,22.21
2022-11-01T19:04:50.161Z,22.74
2022-11-01T19:07:23.929Z,23.15
2022-11-01T19:10:01.693Z,23.27
2022-11-01T19:12:41.575Z,23.14
2022-11-01T19:15:15.573Z,22.88
2022-11-01T19:17:47.025Z,23.36
2022-11-01T19:20:46.612Z,22.64
2022-11-01T19:23:39.379Z,22.54
2022-11-01T19:26:35.692Z,22.47
2022-11-01T19:29:23.091Z,22.60
2022-11-01T19:32:01.895Z,23.39
2022-11-01T19:34:39.294Z,22.63
2022-11-01T19:37:34.615Z,23.71
2022-11-01T19:40:15.823Z,24.07
2022-11-01T19:42:46.322Z,24.02
2022-11-01T19:45:16.145Z,22.79
2022-11-01T19:47:50.683Z,23.22
2022-11-01T19:50:28.354Z,22.98
2022-11-01T19:53:00.552Z,23.50
2022-11-01T19:56:06.339Z,24.04
2022-11-01T19:58:56.636Z,23.42
2022-11-01T20:01:52.917Z,22.71
2022-11-01T20:04:32.432Z,22.85
2022-11-01T20:07:16.924Z,22.73
2022-11-01T20:09:48.699Z,22.63
2022-11-01T20:12:22.140Z,21.98
2022-11-01T20:14:52.841Z,22.27
2022-11-01T20:17:22.368Z,22.46
2022-11-01T20:19:52.107Z,22.83
2022-11-01T20:22:22.557Z,22.71
2022-11-01T20:24:52.935Z,22.73
2022-11-01T20:27:24.464Z,23.16
2022-11-01T20:29:54.752Z,23.22
2022-11-01T20:32:25.524Z,22.39
2022-11-01T20:34:55.506Z,21.93
2022-11-01T20:37:28.945Z,21.87
2022-11-01T20:39:59.350Z,21.45
2022-11-01T20:42:29.342Z,20.75
2022-11-01T20:44:59.989Z,21.11
2022-11-01T20:47:30.196Z,21.01
2022-11-01T20:50:02.037Z,21.02
2022-11-01T20:52:39.606Z,20.96
2022-11-01T20:55:15.429Z,21.17
2022-11-01T20:57:46.551Z,21.17
2022-11-01T21:00:19.559Z,21.41
2022-11-01T21:02:49.719Z,21.30
2022-11-01T21:05:24.335Z,20.50
2022-11-01T21:08:11.866Z,20.37
2022-11-01T21:10:44.459Z,20.56
2022-11-01T21:13:35.362Z,20.63
2022-11-01T21:16:15.251Z,20.26
2022-11-01T21:18:47.025Z,20.27
2022-11-01T21:21:17.456Z,19.86
2022-11-01T21:23:49.059Z,19.59
2022-11-01T21:26:29.599Z,19.56
2022-11-01T21:29:20.426Z,19.12
2022-11-01T21:31:50.989Z,18.73
2022-11-01T21:34:28.386Z,18.71
2022-11-01T21:37:00.147Z,18.38
2022-11-01T21:39:33.950Z,18.05
2022-11-01T21:42:28.883Z,17.86
2022-11-01T21:45:02.259Z,17.68
2022-11-01T21:47:34.489Z,17.38
2022-11-01T21:50:04.524Z,17.24
2022-11-01T21:52:34.514Z,16.94
2022-11-01T21:55:04.614Z,16.81
2022-11-01T21:57:35.091Z,16.61
2022-11-01T22:00:05.710Z,16.41
2022-11-01T22:02:36.351Z,16.30
2022-11-01T22:05:06.922Z,16.21
2022-11-01T22:07:37.340Z,15.89
2022-11-01T22:10:07.663Z,15.60
2022-11-01T22:12:38.399Z,15.60
2022-11-01T22:15:09.170Z,15.53
2022-11-01T22:17:39.734Z,15.43
2022-11-01T22:20:10.313Z,15.37
2022-11-01T22:22:40.991Z,15.14
2022-11-01T22:25:11.196Z,14.91
2022-11-01T22:27:41.148Z,14.68
2022-11-01T22:30:11.684Z,14.41
2022-11-01T22:32:42.451Z,14.49
2022-11-01T22:35:12.468Z,14.48
2022-11-01T22:37:43.379Z,14.40
2022-11-01T22:40:14.797Z,14.13
2022-11-01T22:42:44.761Z,14.11
2022-11-01T22:45:19.105Z,13.90
2022-11-01T22:47:49.134Z,13.81
2022-11-01T22:50:29.421Z,13.83
2022-11-01T22:52:59.594Z,13.75
2022-11-01T22:55:31.739Z,13.61
2022-11-01T22:58:27.508Z,13.71
2022-11-01T23:01:01.652Z,13.36
2022-11-01T23:03:40.177Z,13.63
2022-11-01T23:06:36.103Z,13.65
2022-11-01T23:09:18.671Z,13.59
2022-11-01T23:12:13.101Z,13.55
2022-11-01T23:14:49.109Z,13.49
2022-11-01T23:17:36.265Z,13.40
2022-11-01T23:20:07.009Z,13.32
2022-11-01T23:22:38.130Z,13.14
2022-11-01T23:25:10.023Z,13.20
2022-11-01T23:27:40.609Z,13.01
2022-11-01T23:30:14.076Z,12.88
2022-11-01T23:32:47.229Z,12.85
2022-11-01T23:35:22.705Z,12.74
2022-11-01T23:37:54.365Z,12.71
2022-11-01T23:40:30.559Z,12.64
2022-11-01T23:43:08.654Z,12.87
2022-11-01T23:45:38.115Z,12.40
2022-11-01T23:48:11.022Z,12.00
2022-11-01T23:50:47.213Z,11.91
2022-11-01T23:53:19.461Z,12.01
2022-11-01T23:55:54.783Z,11.91
2022-11-01T23:58:32.376Z,11.80
